sensor_id;sensor_type;location;lat;lon;timestamp;P1;durP1;ratioP1;P2;durP2;ratioP2
18867;SDS011;9563;49.240;9.088;2022-08-20T00:01:43;9.77;;;7.55;;
18867;SDS011;9563;49.240;9.088;2022-08-20T00:04:10;11.10;;;7.47;;
18867;SDS011;9563;49.240;9.088;2022-08-20T00:06:38;11.88;;;8.00;;
18867;SDS011;9563;49.240;9.088;2022-08-20T00:09:06;10.88;;;7.82;;
18867;SDS011;9563;49.240;9.088;2022-08-20T00:11:33;11.35;;;7.38;;
18867;SDS011;9563;49.240;9.088;2022-08-20T00:14:03;10.15;;;7.32;;
18867;SDS011;9563;49.240;9.088;2022-08-20T00:16:32;11.32;;;7.93;;
18867;SDS011;9563;49.240;9.088;2022-08-20T00:19:02;11.27;;;7.55;;
18867;SDS011;9563;49.240;9.088;2022-08-20T00:21:30;10.55;;;7.05;;
18867;SDS011;9563;49.240;9.088;2022-08-20T00:23:57;10.00;;;7.28;;
18867;SDS011;9563;49.240;9.088;2022-08-20T00:26:37;11.45;;;7.90;;
18867;SDS011;9563;49.240;9.088;2022-08-20T00:29:05;10.80;;;7.57;;
18867;SDS011;9563;49.240;9.088;2022-08-20T00:31:32;10.65;;;7.40;;
18867;SDS011;9563;49.240;9.088;2022-08-20T00:33:59;11.07;;;7.35;;
18867;SDS011;9563;49.240;9.088;2022-08-20T00:36:26;13.13;;;7.30;;
18867;SDS011;9563;49.240;9.088;2022-08-20T00:38:53;9.32;;;6.90;;
18867;SDS011;9563;49.240;9.088;2022-08-20T00:41:21;11.35;;;7.28;;
18867;SDS011;9563;49.240;9.088;2022-08-20T00:43:51;10.68;;;7.13;;
18867;SDS011;9563;49.240;9.088;2022-08-20T00:46:31;11.52;;;7.47;;
18867;SDS011;9563;49.240;9.088;2022-08-20T00:48:58;9.60;;;7.07;;
18867;SDS011;9563;49.240;9.088;2022-08-20T00:51:29;10.25;;;7.05;;
18867;SDS011;9563;49.240;9.088;2022-08-20T00:54:00;8.82;;;6.65;;
18867;SDS011;9563;49.240;9.088;2022-08-20T00:56:31;14.30;;;7.13;;
18867;SDS011;9563;49.240;9.088;2022-08-20T00:58:59;9.77;;;6.72;;
18867;SDS011;9563;49.240;9.088;2022-08-20T01:01:27;10.32;;;6.53;;
18867;SDS011;9563;49.240;9.088;2022-08-20T01:03:57;11.57;;;7.55;;
18867;SDS011;9563;49.240;9.088;2022-08-20T01:06:24;11.50;;;6.82;;
18867;SDS011;9563;49.240;9.088;2022-08-20T01:08:52;12.20;;;6.75;;
18867;SDS011;9563;49.240;9.088;2022-08-20T01:11:19;9.65;;;6.50;;
18867;SDS011;9563;49.240;9.088;2022-08-20T01:13:54;10.70;;;7.32;;
18867;SDS011;9563;49.240;9.088;2022-08-20T01:16:22;10.57;;;7.13;;
18867;SDS011;9563;49.240;9.088;2022-08-20T01:18:53;8.40;;;6.25;;
18867;SDS011;9563;49.240;9.088;2022-08-20T01:21:24;9.50;;;6.85;;
18867;SDS011;9563;49.240;9.088;2022-08-20T01:23:53;9.98;;;6.18;;
18867;SDS011;9563;49.240;9.088;2022-08-20T01:26:28;7.75;;;5.93;;
18867;SDS011;9563;49.240;9.088;2022-08-20T01:28:58;7.57;;;5.53;;
18867;SDS011;9563;49.240;9.088;2022-08-20T01:31:28;8.35;;;5.63;;
18867;SDS011;9563;49.240;9.088;2022-08-20T01:33:57;7.80;;;5.25;;
18867;SDS011;9563;49.240;9.088;2022-08-20T01:36:26;6.57;;;4.28;;
18867;SDS011;9563;49.240;9.088;2022-08-20T01:38:55;5.90;;;4.10;;
18867;SDS011;9563;49.240;9.088;2022-08-20T01:41:34;6.95;;;4.20;;
18867;SDS011;9563;49.240;9.088;2022-08-20T01:44:14;5.20;;;3.35;;
18867;SDS011;9563;49.240;9.088;2022-08-20T01:46:42;7.93;;;3.85;;
18867;SDS011;9563;49.240;9.088;2022-08-20T01:49:11;7.53;;;3.78;;
18867;SDS011;9563;49.240;9.088;2022-08-20T01:51:41;4.28;;;3.22;;
18867;SDS011;9563;49.240;9.088;2022-08-20T01:54:08;6.43;;;3.83;;
18867;SDS011;9563;49.240;9.088;2022-08-20T01:56:49;5.45;;;2.92;;
18867;SDS011;9563;49.240;9.088;2022-08-20T01:59:19;4.78;;;3.25;;
18867;SDS011;9563;49.240;9.088;2022-08-20T02:01:46;3.92;;;3.00;;
18867;SDS011;9563;49.240;9.088;2022-08-20T02:04:14;4.90;;;3.03;;
18867;SDS011;9563;49.240;9.088;2022-08-20T02:06:43;5.82;;;3.10;;
18867;SDS011;9563;49.240;9.088;2022-08-20T02:09:11;6.80;;;3.13;;
18867;SDS011;9563;49.240;9.088;2022-08-20T02:11:40;4.75;;;3.00;;
18867;SDS011;9563;49.240;9.088;2022-08-20T02:14:08;4.53;;;2.40;;
18867;SDS011;9563;49.240;9.088;2022-08-20T02:16:37;3.60;;;2.80;;
18867;SDS011;9563;49.240;9.088;2022-08-20T02:19:07;3.53;;;2.60;;
18867;SDS011;9563;49.240;9.088;2022-08-20T02:21:36;6.32;;;2.47;;
18867;SDS011;9563;49.240;9.088;2022-08-20T02:24:06;7.18;;;2.42;;
18867;SDS011;9563;49.240;9.088;2022-08-20T02:26:33;5.35;;;2.70;;
18867;SDS011;9563;49.240;9.088;2022-08-20T02:29:04;5.82;;;2.35;;
18867;SDS011;9563;49.240;9.088;2022-08-20T02:31:33;6.30;;;2.22;;
18867;SDS011;9563;49.240;9.088;2022-08-20T02:34:01;4.38;;;2.85;;
18867;SDS011;9563;49.240;9.088;2022-08-20T02:36:28;6.43;;;2.88;;
18867;SDS011;9563;49.240;9.088;2022-08-20T02:38:55;2.97;;;2.33;;
18867;SDS011;9563;49.240;9.088;2022-08-20T02:41:22;6.22;;;2.95;;
18867;SDS011;9563;49.240;9.088;2022-08-20T02:43:49;4.97;;;2.58;;
18867;SDS011;9563;49.240;9.088;2022-08-20T02:46:18;2.90;;;2.03;;
18867;SDS011;9563;49.240;9.088;2022-08-20T02:48:45;3.50;;;2.72;;
18867;SDS011;9563;49.240;9.088;2022-08-20T02:51:12;3.55;;;2.00;;
18867;SDS011;9563;49.240;9.088;2022-08-20T02:53:39;3.20;;;2.40;;
18867;SDS011;9563;49.240;9.088;2022-08-20T02:56:07;3.60;;;2.40;;
18867;SDS011;9563;49.240;9.088;2022-08-20T02:58:36;2.58;;;2.22;;
18867;SDS011;9563;49.240;9.088;2022-08-20T03:01:05;3.83;;;2.22;;
18867;SDS011;9563;49.240;9.088;2022-08-20T03:03:37;2.80;;;2.30;;
18867;SDS011;9563;49.240;9.088;2022-08-20T03:06:05;5.53;;;2.17;;
18867;SDS011;9563;49.240;9.088;2022-08-20T03:08:34;3.20;;;2.20;;
18867;SDS011;9563;49.240;9.088;2022-08-20T03:11:01;3.03;;;1.85;;
18867;SDS011;9563;49.240;9.088;2022-08-20T03:13:28;3.70;;;2.30;;
18867;SDS011;9563;49.240;9.088;2022-08-20T03:15:56;3.53;;;1.90;;
18867;SDS011;9563;49.240;9.088;2022-08-20T03:18:26;2.78;;;1.60;;
18867;SDS011;9563;49.240;9.088;2022-08-20T03:20:56;2.03;;;1.58;;
18867;SDS011;9563;49.240;9.088;2022-08-20T03:23:24;3.70;;;1.90;;
18867;SDS011;9563;49.240;9.088;2022-08-20T03:25:51;1.88;;;1.60;;
18867;SDS011;9563;49.240;9.088;2022-08-20T03:28:18;2.95;;;1.83;;
18867;SDS011;9563;49.240;9.088;2022-08-20T03:30:45;3.22;;;1.73;;
18867;SDS011;9563;49.240;9.088;2022-08-20T03:33:12;3.03;;;1.70;;
18867;SDS011;9563;49.240;9.088;2022-08-20T03:35:40;3.13;;;1.50;;
18867;SDS011;9563;49.240;9.088;2022-08-20T03:38:09;5.85;;;1.98;;
18867;SDS011;9563;49.240;9.088;2022-08-20T03:40:38;1.65;;;1.50;;
18867;SDS011;9563;49.240;9.088;2022-08-20T03:43:06;1.90;;;1.55;;
18867;SDS011;9563;49.240;9.088;2022-08-20T03:45:34;4.63;;;1.70;;
18867;SDS011;9563;49.240;9.088;2022-08-20T03:48:03;2.63;;;1.65;;
18867;SDS011;9563;49.240;9.088;2022-08-20T03:50:31;3.13;;;1.75;;
18867;SDS011;9563;49.240;9.088;2022-08-20T03:52:59;4.35;;;1.67;;
18867;SDS011;9563;49.240;9.088;2022-08-20T03:55:28;2.20;;;1.50;;
18867;SDS011;9563;49.240;9.088;2022-08-20T03:57:58;2.92;;;1.45;;
18867;SDS011;9563;49.240;9.088;2022-08-20T04:00:29;2.10;;;1.27;;
18867;SDS011;9563;49.240;9.088;2022-08-20T04:03:00;2.15;;;1.60;;
18867;SDS011;9563;49.240;9.088;2022-08-20T04:05:28;2.10;;;1.70;;
18867;SDS011;9563;49.240;9.088;2022-08-20T04:07:58;2.22;;;1.50;;
18867;SDS011;9563;49.240;9.088;2022-08-20T04:10:28;3.22;;;1.80;;
18867;SDS011;9563;49.240;9.088;2022-08-20T04:12:55;3.95;;;1.45;;
18867;SDS011;9563;49.240;9.088;2022-08-20T04:15:22;2.33;;;1.60;;
18867;SDS011;9563;49.240;9.088;2022-08-20T04:17:49;2.25;;;1.55;;
18867;SDS011;9563;49.240;9.088;2022-08-20T04:20:18;2.03;;;1.60;;
18867;SDS011;9563;49.240;9.088;2022-08-20T04:22:47;2.15;;;1.50;;
18867;SDS011;9563;49.240;9.088;2022-08-20T04:25:15;1.70;;;1.33;;
18867;SDS011;9563;49.240;9.088;2022-08-20T04:27:43;2.75;;;1.85;;
18867;SDS011;9563;49.240;9.088;2022-08-20T04:30:11;1.73;;;1.30;;
18867;SDS011;9563;49.240;9.088;2022-08-20T04:32:39;3.70;;;1.40;;
18867;SDS011;9563;49.240;9.088;2022-08-20T04:35:08;3.40;;;1.65;;
18867;SDS011;9563;49.240;9.088;2022-08-20T04:37:37;3.28;;;1.20;;
18867;SDS011;9563;49.240;9.088;2022-08-20T04:40:06;2.25;;;1.45;;
18867;SDS011;9563;49.240;9.088;2022-08-20T04:42:54;1.50;;;1.40;;
18867;SDS011;9563;49.240;9.088;2022-08-20T04:45:21;2.75;;;1.83;;
18867;SDS011;9563;49.240;9.088;2022-08-20T04:47:49;4.05;;;1.63;;
18867;SDS011;9563;49.240;9.088;2022-08-20T04:50:17;2.22;;;1.75;;
18867;SDS011;9563;49.240;9.088;2022-08-20T04:52:45;2.22;;;1.77;;
18867;SDS011;9563;49.240;9.088;2022-08-20T04:55:13;2.03;;;1.40;;
18867;SDS011;9563;49.240;9.088;2022-08-20T04:57:41;2.50;;;1.50;;
18867;SDS011;9563;49.240;9.088;2022-08-20T05:00:13;2.28;;;1.70;;
18867;SDS011;9563;49.240;9.088;2022-08-20T05:02:41;3.72;;;1.40;;
18867;SDS011;9563;49.240;9.088;2022-08-20T05:05:09;2.83;;;1.67;;
18867;SDS011;9563;49.240;9.088;2022-08-20T05:07:38;1.60;;;1.40;;
18867;SDS011;9563;49.240;9.088;2022-08-20T05:10:07;1.50;;;1.40;;
18867;SDS011;9563;49.240;9.088;2022-08-20T05:12:35;2.13;;;1.77;;
18867;SDS011;9563;49.240;9.088;2022-08-20T05:15:03;2.38;;;1.65;;
18867;SDS011;9563;49.240;9.088;2022-08-20T05:17:32;3.88;;;1.70;;
18867;SDS011;9563;49.240;9.088;2022-08-20T05:19:59;3.53;;;1.60;;
18867;SDS011;9563;49.240;9.088;2022-08-20T05:22:26;2.40;;;1.90;;
18867;SDS011;9563;49.240;9.088;2022-08-20T05:24:53;6.35;;;1.70;;
18867;SDS011;9563;49.240;9.088;2022-08-20T05:27:23;2.22;;;1.40;;
18867;SDS011;9563;49.240;9.088;2022-08-20T05:29:51;2.33;;;1.80;;
18867;SDS011;9563;49.240;9.088;2022-08-20T05:32:20;3.42;;;1.70;;
18867;SDS011;9563;49.240;9.088;2022-08-20T05:34:48;2.63;;;1.70;;
18867;SDS011;9563;49.240;9.088;2022-08-20T05:37:15;2.55;;;1.75;;
18867;SDS011;9563;49.240;9.088;2022-08-20T05:39:42;2.28;;;1.77;;
18867;SDS011;9563;49.240;9.088;2022-08-20T05:42:10;5.47;;;2.45;;
18867;SDS011;9563;49.240;9.088;2022-08-20T05:44:37;2.33;;;2.05;;
18867;SDS011;9563;49.240;9.088;2022-08-20T05:47:04;1.85;;;1.73;;
18867;SDS011;9563;49.240;9.088;2022-08-20T05:49:31;2.08;;;1.83;;
18867;SDS011;9563;49.240;9.088;2022-08-20T05:52:00;3.90;;;2.20;;
18867;SDS011;9563;49.240;9.088;2022-08-20T05:54:27;24.45;;;3.47;;
18867;SDS011;9563;49.240;9.088;2022-08-20T05:56:54;3.63;;;1.63;;
18867;SDS011;9563;49.240;9.088;2022-08-20T05:59:21;3.20;;;2.22;;
18867;SDS011;9563;49.240;9.088;2022-08-20T06:01:49;2.63;;;1.90;;
18867;SDS011;9563;49.240;9.088;2022-08-20T06:04:16;4.20;;;1.90;;
18867;SDS011;9563;49.240;9.088;2022-08-20T06:06:53;2.70;;;1.90;;
18867;SDS011;9563;49.240;9.088;2022-08-20T06:09:24;5.55;;;1.92;;
18867;SDS011;9563;49.240;9.088;2022-08-20T06:11:51;2.08;;;1.63;;
18867;SDS011;9563;49.240;9.088;2022-08-20T06:14:18;2.17;;;1.70;;
18867;SDS011;9563;49.240;9.088;2022-08-20T06:16:46;2.78;;;1.60;;
18867;SDS011;9563;49.240;9.088;2022-08-20T06:19:13;2.28;;;1.92;;
18867;SDS011;9563;49.240;9.088;2022-08-20T06:21:40;6.10;;;1.70;;
18867;SDS011;9563;49.240;9.088;2022-08-20T06:24:07;3.80;;;1.95;;
18867;SDS011;9563;49.240;9.088;2022-08-20T06:26:36;2.40;;;2.10;;
18867;SDS011;9563;49.240;9.088;2022-08-20T06:29:03;4.25;;;1.80;;
18867;SDS011;9563;49.240;9.088;2022-08-20T06:31:31;5.70;;;1.77;;
18867;SDS011;9563;49.240;9.088;2022-08-20T06:33:59;3.00;;;1.90;;
18867;SDS011;9563;49.240;9.088;2022-08-20T06:36:26;2.88;;;2.22;;
18867;SDS011;9563;49.240;9.088;2022-08-20T06:38:53;2.13;;;1.88;;
18867;SDS011;9563;49.240;9.088;2022-08-20T06:41:22;3.20;;;2.13;;
18867;SDS011;9563;49.240;9.088;2022-08-20T06:43:51;3.50;;;1.85;;
18867;SDS011;9563;49.240;9.088;2022-08-20T06:46:18;5.00;;;1.90;;
18867;SDS011;9563;49.240;9.088;2022-08-20T06:48:47;2.80;;;2.10;;
18867;SDS011;9563;49.240;9.088;2022-08-20T06:51:16;2.50;;;1.90;;
18867;SDS011;9563;49.240;9.088;2022-08-20T06:53:44;4.75;;;2.30;;
18867;SDS011;9563;49.240;9.088;2022-08-20T06:56:11;3.78;;;2.42;;
18867;SDS011;9563;49.240;9.088;2022-08-20T06:58:38;3.30;;;2.30;;
18867;SDS011;9563;49.240;9.088;2022-08-20T07:01:07;4.95;;;2.00;;
18867;SDS011;9563;49.240;9.088;2022-08-20T07:03:36;2.83;;;2.00;;
18867;SDS011;9563;49.240;9.088;2022-08-20T07:06:03;2.45;;;2.10;;
18867;SDS011;9563;49.240;9.088;2022-08-20T07:08:31;5.68;;;2.58;;
18867;SDS011;9563;49.240;9.088;2022-08-20T07:10:58;3.75;;;2.30;;
18867;SDS011;9563;49.240;9.088;2022-08-20T07:13:25;5.88;;;2.67;;
18867;SDS011;9563;49.240;9.088;2022-08-20T07:15:52;4.45;;;2.65;;
18867;SDS011;9563;49.240;9.088;2022-08-20T07:18:21;4.15;;;2.47;;
18867;SDS011;9563;49.240;9.088;2022-08-20T07:20:49;3.03;;;2.50;;
18867;SDS011;9563;49.240;9.088;2022-08-20T07:23:18;4.45;;;2.47;;
18867;SDS011;9563;49.240;9.088;2022-08-20T07:25:45;3.90;;;2.40;;
18867;SDS011;9563;49.240;9.088;2022-08-20T07:28:14;5.72;;;2.47;;
18867;SDS011;9563;49.240;9.088;2022-08-20T07:30:44;3.08;;;2.60;;
18867;SDS011;9563;49.240;9.088;2022-08-20T07:33:30;2.72;;;2.22;;
18867;SDS011;9563;49.240;9.088;2022-08-20T07:35:58;4.82;;;2.85;;
18867;SDS011;9563;49.240;9.088;2022-08-20T07:38:28;4.43;;;2.78;;
18867;SDS011;9563;49.240;9.088;2022-08-20T07:40:57;4.13;;;2.70;;
18867;SDS011;9563;49.240;9.088;2022-08-20T07:43:26;3.03;;;2.22;;
18867;SDS011;9563;49.240;9.088;2022-08-20T07:45:55;4.45;;;2.53;;
18867;SDS011;9563;49.240;9.088;2022-08-20T07:48:24;2.72;;;2.10;;
18867;SDS011;9563;49.240;9.088;2022-08-20T07:50:55;3.65;;;2.53;;
18867;SDS011;9563;49.240;9.088;2022-08-20T07:53:23;6.18;;;2.53;;
18867;SDS011;9563;49.240;9.088;2022-08-20T07:55:51;4.78;;;2.90;;
18867;SDS011;9563;49.240;9.088;2022-08-20T07:58:19;6.45;;;3.00;;
18867;SDS011;9563;49.240;9.088;2022-08-20T08:00:48;4.38;;;3.03;;
18867;SDS011;9563;49.240;9.088;2022-08-20T08:03:16;4.82;;;3.15;;
18867;SDS011;9563;49.240;9.088;2022-08-20T08:05:47;5.85;;;2.55;;
18867;SDS011;9563;49.240;9.088;2022-08-20T08:08:18;4.15;;;2.60;;
18867;SDS011;9563;49.240;9.088;2022-08-20T08:10:51;6.28;;;2.78;;
18867;SDS011;9563;49.240;9.088;2022-08-20T08:13:21;3.35;;;2.60;;
18867;SDS011;9563;49.240;9.088;2022-08-20T08:15:50;5.55;;;3.28;;
18867;SDS011;9563;49.240;9.088;2022-08-20T08:18:22;5.20;;;2.20;;
18867;SDS011;9563;49.240;9.088;2022-08-20T08:20:52;4.85;;;2.63;;
18867;SDS011;9563;49.240;9.088;2022-08-20T08:23:21;3.60;;;2.78;;
18867;SDS011;9563;49.240;9.088;2022-08-20T08:25:49;4.53;;;2.83;;
18867;SDS011;9563;49.240;9.088;2022-08-20T08:28:17;6.20;;;3.08;;
18867;SDS011;9563;49.240;9.088;2022-08-20T08:30:46;3.20;;;2.50;;
18867;SDS011;9563;49.240;9.088;2022-08-20T08:33:17;4.05;;;3.00;;
18867;SDS011;9563;49.240;9.088;2022-08-20T08:35:56;6.25;;;3.03;;
18867;SDS011;9563;49.240;9.088;2022-08-20T08:38:29;3.72;;;2.97;;
18867;SDS011;9563;49.240;9.088;2022-08-20T08:41:01;3.78;;;2.92;;
18867;SDS011;9563;49.240;9.088;2022-08-20T08:43:36;3.90;;;2.72;;
18867;SDS011;9563;49.240;9.088;2022-08-20T08:46:03;5.32;;;3.20;;
18867;SDS011;9563;49.240;9.088;2022-08-20T08:48:34;6.00;;;3.80;;
18867;SDS011;9563;49.240;9.088;2022-08-20T08:51:03;10.90;;;3.55;;
18867;SDS011;9563;49.240;9.088;2022-08-20T08:53:38;7.22;;;3.40;;
18867;SDS011;9563;49.240;9.088;2022-08-20T08:56:07;5.28;;;3.10;;
18867;SDS011;9563;49.240;9.088;2022-08-20T08:58:35;9.65;;;3.05;;
18867;SDS011;9563;49.240;9.088;2022-08-20T09:01:03;4.65;;;3.08;;
18867;SDS011;9563;49.240;9.088;2022-08-20T09:03:37;5.47;;;3.10;;
18867;SDS011;9563;49.240;9.088;2022-08-20T09:06:07;4.57;;;3.47;;
18867;SDS011;9563;49.240;9.088;2022-08-20T09:08:42;6.18;;;3.42;;
18867;SDS011;9563;49.240;9.088;2022-08-20T09:11:12;6.43;;;3.55;;
18867;SDS011;9563;49.240;9.088;2022-08-20T09:13:39;6.03;;;3.53;;
18867;SDS011;9563;49.240;9.088;2022-08-20T09:16:21;5.15;;;3.40;;
18867;SDS011;9563;49.240;9.088;2022-08-20T09:18:49;5.97;;;3.38;;
18867;SDS011;9563;49.240;9.088;2022-08-20T09:21:17;4.38;;;3.35;;
18867;SDS011;9563;49.240;9.088;2022-08-20T09:23:46;4.18;;;3.03;;
18867;SDS011;9563;49.240;9.088;2022-08-20T09:26:13;8.15;;;3.58;;
18867;SDS011;9563;49.240;9.088;2022-08-20T09:28:39;3.53;;;3.22;;
18867;SDS011;9563;49.240;9.088;2022-08-20T09:31:06;4.75;;;3.83;;
18867;SDS011;9563;49.240;9.088;2022-08-20T09:33:39;7.25;;;4.20;;
18867;SDS011;9563;49.240;9.088;2022-08-20T09:36:06;7.30;;;3.25;;
18867;SDS011;9563;49.240;9.088;2022-08-20T09:38:33;5.10;;;2.90;;
18867;SDS011;9563;49.240;9.088;2022-08-20T09:41:01;5.55;;;3.40;;
18867;SDS011;9563;49.240;9.088;2022-08-20T09:43:28;6.53;;;3.60;;
18867;SDS011;9563;49.240;9.088;2022-08-20T09:46:04;9.32;;;4.05;;
18867;SDS011;9563;49.240;9.088;2022-08-20T09:48:31;7.03;;;3.00;;
18867;SDS011;9563;49.240;9.088;2022-08-20T09:50:58;7.75;;;3.25;;
18867;SDS011;9563;49.240;9.088;2022-08-20T09:53:25;4.13;;;3.08;;
18867;SDS011;9563;49.240;9.088;2022-08-20T09:55:53;9.45;;;4.00;;
18867;SDS011;9563;49.240;9.088;2022-08-20T09:58:25;6.50;;;3.47;;
18867;SDS011;9563;49.240;9.088;2022-08-20T10:00:58;5.93;;;4.35;;
18867;SDS011;9563;49.240;9.088;2022-08-20T10:03:28;4.90;;;3.67;;
18867;SDS011;9563;49.240;9.088;2022-08-20T10:05:55;7.60;;;3.60;;
18867;SDS011;9563;49.240;9.088;2022-08-20T10:08:23;4.82;;;4.25;;
18867;SDS011;9563;49.240;9.088;2022-08-20T10:10:51;6.18;;;4.15;;
18867;SDS011;9563;49.240;9.088;2022-08-20T10:13:18;6.05;;;3.40;;
18867;SDS011;9563;49.240;9.088;2022-08-20T10:15:46;5.75;;;3.40;;
18867;SDS011;9563;49.240;9.088;2022-08-20T10:18:13;5.20;;;3.53;;
18867;SDS011;9563;49.240;9.088;2022-08-20T10:20:40;4.60;;;3.03;;
18867;SDS011;9563;49.240;9.088;2022-08-20T10:23:08;5.28;;;3.33;;
18867;SDS011;9563;49.240;9.088;2022-08-20T10:25:36;3.78;;;3.03;;
18867;SDS011;9563;49.240;9.088;2022-08-20T10:28:03;5.95;;;3.00;;
18867;SDS011;9563;49.240;9.088;2022-08-20T10:30:31;5.80;;;3.40;;
18867;SDS011;9563;49.240;9.088;2022-08-20T10:32:59;8.07;;;4.25;;
18867;SDS011;9563;49.240;9.088;2022-08-20T10:35:26;5.82;;;3.60;;
18867;SDS011;9563;49.240;9.088;2022-08-20T10:37:53;5.88;;;3.53;;
18867;SDS011;9563;49.240;9.088;2022-08-20T10:40:20;6.40;;;3.60;;
18867;SDS011;9563;49.240;9.088;2022-08-20T10:42:47;6.25;;;3.20;;
18867;SDS011;9563;49.240;9.088;2022-08-20T10:45:15;15.15;;;4.05;;
18867;SDS011;9563;49.240;9.088;2022-08-20T10:47:43;14.52;;;4.90;;
18867;SDS011;9563;49.240;9.088;2022-08-20T10:50:12;13.05;;;5.72;;
18867;SDS011;9563;49.240;9.088;2022-08-20T10:52:43;5.85;;;3.78;;
18867;SDS011;9563;49.240;9.088;2022-08-20T10:55:11;8.70;;;4.05;;
18867;SDS011;9563;49.240;9.088;2022-08-20T10:57:39;6.28;;;4.05;;
18867;SDS011;9563;49.240;9.088;2022-08-20T11:00:07;7.32;;;3.75;;
18867;SDS011;9563;49.240;9.088;2022-08-20T11:02:36;4.20;;;3.45;;
18867;SDS011;9563;49.240;9.088;2022-08-20T11:05:03;4.75;;;3.72;;
18867;SDS011;9563;49.240;9.088;2022-08-20T11:07:33;8.35;;;3.60;;
18867;SDS011;9563;49.240;9.088;2022-08-20T11:10:02;4.15;;;3.53;;
18867;SDS011;9563;49.240;9.088;2022-08-20T11:12:30;5.25;;;3.65;;
18867;SDS011;9563;49.240;9.088;2022-08-20T11:14:57;4.63;;;3.30;;
18867;SDS011;9563;49.240;9.088;2022-08-20T11:17:24;4.35;;;3.20;;
18867;SDS011;9563;49.240;9.088;2022-08-20T11:19:53;5.97;;;3.17;;
18867;SDS011;9563;49.240;9.088;2022-08-20T11:22:21;3.88;;;3.20;;
18867;SDS011;9563;49.240;9.088;2022-08-20T11:24:50;4.40;;;3.10;;
18867;SDS011;9563;49.240;9.088;2022-08-20T11:27:19;5.18;;;2.97;;
18867;SDS011;9563;49.240;9.088;2022-08-20T11:29:49;4.03;;;2.40;;
18867;SDS011;9563;49.240;9.088;2022-08-20T11:32:17;5.40;;;2.58;;
18867;SDS011;9563;49.240;9.088;2022-08-20T11:34:44;3.85;;;2.63;;
18867;SDS011;9563;49.240;9.088;2022-08-20T11:37:12;2.60;;;2.40;;
18867;SDS011;9563;49.240;9.088;2022-08-20T11:39:40;3.90;;;2.78;;
18867;SDS011;9563;49.240;9.088;2022-08-20T11:42:09;6.43;;;2.60;;
18867;SDS011;9563;49.240;9.088;2022-08-20T11:44:36;3.42;;;2.33;;
18867;SDS011;9563;49.240;9.088;2022-08-20T11:47:04;4.95;;;2.28;;
18867;SDS011;9563;49.240;9.088;2022-08-20T11:49:33;5.25;;;2.85;;
18867;SDS011;9563;49.240;9.088;2022-08-20T11:52:01;3.33;;;2.40;;
18867;SDS011;9563;49.240;9.088;2022-08-20T11:54:29;4.05;;;2.88;;
18867;SDS011;9563;49.240;9.088;2022-08-20T11:56:56;2.63;;;2.30;;
18867;SDS011;9563;49.240;9.088;2022-08-20T11:59:25;2.30;;;2.10;;
18867;SDS011;9563;49.240;9.088;2022-08-20T12:01:52;2.70;;;2.10;;
18867;SDS011;9563;49.240;9.088;2022-08-20T12:04:19;3.65;;;2.58;;
18867;SDS011;9563;49.240;9.088;2022-08-20T12:06:46;2.13;;;1.73;;
18867;SDS011;9563;49.240;9.088;2022-08-20T12:09:13;3.03;;;2.30;;
18867;SDS011;9563;49.240;9.088;2022-08-20T12:11:41;2.35;;;2.15;;
18867;SDS011;9563;49.240;9.088;2022-08-20T12:14:08;4.22;;;2.17;;
18867;SDS011;9563;49.240;9.088;2022-08-20T12:16:37;3.40;;;1.70;;
18867;SDS011;9563;49.240;9.088;2022-08-20T12:19:04;2.72;;;1.65;;
18867;SDS011;9563;49.240;9.088;2022-08-20T12:21:31;2.20;;;1.70;;
18867;SDS011;9563;49.240;9.088;2022-08-20T12:23:58;4.05;;;2.00;;
18867;SDS011;9563;49.240;9.088;2022-08-20T12:26:25;2.90;;;2.05;;
18867;SDS011;9563;49.240;9.088;2022-08-20T12:28:51;3.95;;;1.98;;
18867;SDS011;9563;49.240;9.088;2022-08-20T12:31:19;3.65;;;2.05;;
18867;SDS011;9563;49.240;9.088;2022-08-20T12:33:48;1.90;;;1.63;;
18867;SDS011;9563;49.240;9.088;2022-08-20T12:36:15;6.53;;;1.70;;
18867;SDS011;9563;49.240;9.088;2022-08-20T12:38:42;1.70;;;1.48;;
18867;SDS011;9563;49.240;9.088;2022-08-20T12:41:09;4.13;;;1.70;;
18867;SDS011;9563;49.240;9.088;2022-08-20T12:43:36;2.03;;;1.48;;
18867;SDS011;9563;49.240;9.088;2022-08-20T12:46:03;2.42;;;1.20;;
18867;SDS011;9563;49.240;9.088;2022-08-20T12:48:30;7.20;;;1.58;;
18867;SDS011;9563;49.240;9.088;2022-08-20T12:50:59;4.72;;;1.80;;
18867;SDS011;9563;49.240;9.088;2022-08-20T12:53:26;2.63;;;1.40;;
18867;SDS011;9563;49.240;9.088;2022-08-20T12:55:53;2.38;;;1.50;;
18867;SDS011;9563;49.240;9.088;2022-08-20T12:58:20;2.58;;;1.35;;
18867;SDS011;9563;49.240;9.088;2022-08-20T13:00:47;1.50;;;1.20;;
18867;SDS011;9563;49.240;9.088;2022-08-20T13:03:14;4.20;;;1.48;;
18867;SDS011;9563;49.240;9.088;2022-08-20T13:05:41;1.65;;;1.40;;
18867;SDS011;9563;49.240;9.088;2022-08-20T13:08:10;1.55;;;1.10;;
18867;SDS011;9563;49.240;9.088;2022-08-20T13:10:39;2.25;;;1.50;;
18867;SDS011;9563;49.240;9.088;2022-08-20T13:13:09;1.50;;;1.40;;
18867;SDS011;9563;49.240;9.088;2022-08-20T13:15:36;0.95;;;0.85;;
18867;SDS011;9563;49.240;9.088;2022-08-20T13:18:04;1.92;;;1.10;;
18867;SDS011;9563;49.240;9.088;2022-08-20T13:20:31;0.90;;;0.90;;
18867;SDS011;9563;49.240;9.088;2022-08-20T13:22:59;2.13;;;1.13;;
18867;SDS011;9563;49.240;9.088;2022-08-20T13:25:27;2.40;;;0.88;;
18867;SDS011;9563;49.240;9.088;2022-08-20T13:27:55;0.95;;;0.85;;
18867;SDS011;9563;49.240;9.088;2022-08-20T13:30:23;4.45;;;0.90;;
18867;SDS011;9563;49.240;9.088;2022-08-20T13:32:51;1.30;;;0.90;;
18867;SDS011;9563;49.240;9.088;2022-08-20T13:35:18;1.15;;;0.80;;
18867;SDS011;9563;49.240;9.088;2022-08-20T13:37:45;1.00;;;0.65;;
18867;SDS011;9563;49.240;9.088;2022-08-20T13:40:15;1.52;;;0.70;;
18867;SDS011;9563;49.240;9.088;2022-08-20T13:42:43;0.88;;;0.40;;
18867;SDS011;9563;49.240;9.088;2022-08-20T13:45:11;2.85;;;0.70;;
18867;SDS011;9563;49.240;9.088;2022-08-20T13:47:38;2.55;;;0.95;;
18867;SDS011;9563;49.240;9.088;2022-08-20T13:50:08;0.95;;;0.50;;
18867;SDS011;9563;49.240;9.088;2022-08-20T13:52:37;0.73;;;0.65;;
18867;SDS011;9563;49.240;9.088;2022-08-20T13:55:05;1.23;;;0.55;;
18867;SDS011;9563;49.240;9.088;2022-08-20T13:57:34;0.70;;;0.70;;
18867;SDS011;9563;49.240;9.088;2022-08-20T14:00:03;1.67;;;0.70;;
18867;SDS011;9563;49.240;9.088;2022-08-20T14:02:32;0.50;;;0.50;;
18867;SDS011;9563;49.240;9.088;2022-08-20T14:04:59;0.50;;;0.50;;
18867;SDS011;9563;49.240;9.088;2022-08-20T14:07:27;1.42;;;0.50;;
18867;SDS011;9563;49.240;9.088;2022-08-20T14:09:55;1.15;;;0.80;;
18867;SDS011;9563;49.240;9.088;2022-08-20T14:12:24;2.10;;;0.60;;
18867;SDS011;9563;49.240;9.088;2022-08-20T14:14:51;0.80;;;0.73;;
18867;SDS011;9563;49.240;9.088;2022-08-20T14:17:21;3.47;;;0.70;;
18867;SDS011;9563;49.240;9.088;2022-08-20T14:19:50;3.45;;;0.60;;
18867;SDS011;9563;49.240;9.088;2022-08-20T14:22:18;2.35;;;0.50;;
18867;SDS011;9563;49.240;9.088;2022-08-20T14:24:46;0.50;;;0.50;;
18867;SDS011;9563;49.240;9.088;2022-08-20T14:27:15;0.65;;;0.63;;
18867;SDS011;9563;49.240;9.088;2022-08-20T14:29:45;1.77;;;0.50;;
18867;SDS011;9563;49.240;9.088;2022-08-20T14:32:13;0.30;;;0.30;;
18867;SDS011;9563;49.240;9.088;2022-08-20T14:34:42;1.67;;;0.47;;
18867;SDS011;9563;49.240;9.088;2022-08-20T14:37:10;0.70;;;0.40;;
18867;SDS011;9563;49.240;9.088;2022-08-20T14:39:38;0.52;;;0.40;;
18867;SDS011;9563;49.240;9.088;2022-08-20T14:42:06;3.95;;;0.40;;
18867;SDS011;9563;49.240;9.088;2022-08-20T14:44:33;0.55;;;0.40;;
18867;SDS011;9563;49.240;9.088;2022-08-20T14:47:13;1.33;;;0.55;;
18867;SDS011;9563;49.240;9.088;2022-08-20T14:49:43;3.35;;;0.60;;
18867;SDS011;9563;49.240;9.088;2022-08-20T14:52:11;0.85;;;0.60;;
18867;SDS011;9563;49.240;9.088;2022-08-20T14:54:39;1.42;;;0.60;;
18867;SDS011;9563;49.240;9.088;2022-08-20T14:57:06;1.88;;;0.40;;
18867;SDS011;9563;49.240;9.088;2022-08-20T14:59:34;0.47;;;0.45;;
18867;SDS011;9563;49.240;9.088;2022-08-20T15:02:01;0.80;;;0.60;;
18867;SDS011;9563;49.240;9.088;2022-08-20T15:04:29;0.60;;;0.50;;
18867;SDS011;9563;49.240;9.088;2022-08-20T15:06:57;0.95;;;0.73;;
18867;SDS011;9563;49.240;9.088;2022-08-20T15:09:24;1.38;;;0.75;;